Time;durP1;ratioP1;P1;durP2;ratioP2;P2;SDS_P1;SDS_P2;PMS_P1;PMS_P2;Temp;Humidity;BMP_temperature;BMP_pressure;BME280_temperature;BME280_humidity;BME280_pressure;Samples;Min_cycle;Max_cycle;Signal;HPM_P1;HPM_P2
2020/12/27 00:02:20;;;;;;;3.60;3.08;;;;;11.40;100009.00;;;;5101223;28;20197;-79
2020/12/27 00:04:48;;;;;;;5.60;3.55;;;;;11.40;100003.00;;;;5089174;28;20202;-79
2020/12/27 00:07:15;;;;;;;3.88;3.25;;;;;11.40;99988.00;;;;5089993;28;20237;-79
2020/12/27 00:09:43;;;;;;;4.32;3.22;;;;;11.40;99978.00;;;;5095648;28;20581;-79
2020/12/27 00:12:11;;;;;;;3.00;2.70;;;;;11.40;99978.00;;;;5098750;28;20248;-78
2020/12/27 00:14:38;;;;;;;4.28;3.25;;;;;11.40;99970.00;;;;5088979;28;20213;-78
2020/12/27 00:17:05;;;;;;;2.88;2.58;;;;;11.40;99960.00;;;;5089644;28;20229;-78
2020/12/27 00:19:32;;;;;;;3.80;3.00;;;;;11.40;99956.00;;;;5094142;28;20306;-78
2020/12/27 00:22:00;;;;;;;4.70;3.17;;;;;11.40;99939.00;;;;5089560;28;20664;-79
2020/12/27 00:24:27;;;;;;;4.03;3.20;;;;;11.40;99936.00;;;;5089351;28;20203;-79
2020/12/27 00:26:54;;;;;;;4.38;3.75;;;;;11.30;99917.00;;;;5088544;28;20206;-79
2020/12/27 00:29:21;;;;;;;4.68;3.17;;;;;11.30;99911.00;;;;5089216;28;20611;-79
2020/12/27 00:31:49;;;;;;;4.65;2.88;;;;;11.30;99883.00;;;;5088820;28;20255;-78
2020/12/27 00:34:16;;;;;;;4.03;3.13;;;;;11.30;99881.00;;;;5089235;28;20198;-79
2020/12/27 00:36:42;;;;;;;4.65;3.47;;;;;11.30;99854.00;;;;5088352;28;20218;-79
2020/12/27 00:39:10;;;;;;;5.43;3.50;;;;;11.20;99876.00;;;;5089081;28;20260;-80
2020/12/27 00:41:37;;;;;;;5.03;3.60;;;;;11.20;99859.00;;;;5088784;28;20202;-78
2020/12/27 00:44:05;;;;;;;4.28;3.20;;;;;11.20;99835.00;;;;5088267;28;20198;-78
2020/12/27 00:46:32;;;;;;;5.50;3.40;;;;;11.20;99839.00;;;;5088032;28;21003;-78
2020/12/27 00:48:59;;;;;;;4.47;3.60;;;;;11.10;99832.00;;;;5089227;28;20194;-78
2020/12/27 00:51:27;;;;;;;6.03;4.43;;;;;11.10;99822.00;;;;5088638;28;20295;-77
2020/12/27 00:53:54;;;;;;;3.97;3.00;;;;;11.10;99824.00;;;;5090027;28;20206;-77
2020/12/27 00:56:21;;;;;;;4.53;3.50;;;;;11.10;99799.00;;;;5089203;28;20221;-77
2020/12/27 00:58:48;;;;;;;4.05;3.25;;;;;11.10;99765.00;;;;5088571;28;20228;-78
2020/12/27 01:01:15;;;;;;;5.88;3.88;;;;;11.00;99779.00;;;;5096039;28;20225;-79
2020/12/27 01:03:43;;;;;;;4.15;3.45;;;;;11.00;99762.00;;;;5092932;28;20590;-79
2020/12/27 01:06:10;;;;;;;3.67;3.35;;;;;11.00;99783.00;;;;5087995;28;20198;-79
2020/12/27 01:08:37;;;;;;;5.35;3.72;;;;;11.00;99760.00;;;;5088528;28;20221;-79
2020/12/27 01:11:05;;;;;;;4.97;3.45;;;;;11.00;99736.00;;;;5088741;28;20252;-79
2020/12/27 01:13:33;;;;;;;3.97;3.25;;;;;11.00;99731.00;;;;5088568;28;20198;-78
2020/12/27 01:16:01;;;;;;;5.38;3.30;;;;;11.00;99726.00;;;;5087344;28;20578;-79
2020/12/27 01:18:27;;;;;;;4.85;3.80;;;;;11.00;99721.00;;;;5088593;28;20202;-78
2020/12/27 01:20:54;;;;;;;4.82;3.40;;;;;11.00;99714.00;;;;5087841;28;20565;-79
2020/12/27 01:23:21;;;;;;;5.13;3.40;;;;;11.00;99710.00;;;;5088391;28;20206;-79
2020/12/27 01:25:48;;;;;;;4.20;3.28;;;;;11.00;99697.00;;;;5085473;28;20201;-78
2020/12/27 01:28:14;;;;;;;4.25;3.00;;;;;11.00;99702.00;;;;5087992;28;20190;-78
2020/12/27 01:30:44;;;;;;;5.32;3.80;;;;;11.00;99698.00;;;;5087817;28;20195;-78
2020/12/27 01:33:11;;;;;;;3.95;3.40;;;;;11.00;99709.00;;;;5088469;28;20225;-77
2020/12/27 01:35:37;;;;;;;6.53;3.60;;;;;11.00;99676.00;;;;5087312;28;20248;-78
2020/12/27 01:38:04;;;;;;;5.47;3.88;;;;;11.00;99676.00;;;;5088341;28;20263;-78
2020/12/27 01:40:31;;;;;;;4.82;3.28;;;;;11.00;99668.00;;;;5088027;28;20193;-79
2020/12/27 01:42:58;;;;;;;6.93;4.40;;;;;10.90;99660.00;;;;5087491;28;20202;-78
2020/12/27 01:45:26;;;;;;;4.47;3.42;;;;;10.90;99652.00;;;;5091903;28;20666;-78
2020/12/27 01:47:54;;;;;;;4.25;3.08;;;;;10.90;99643.00;;;;5096807;28;20197;-77
2020/12/27 01:50:22;;;;;;;4.88;3.40;;;;;10.90;99636.00;;;;5105426;28;20577;-77
2020/12/27 01:52:49;;;;;;;4.90;3.17;;;;;10.90;99621.00;;;;5087353;28;20214;-79
2020/12/27 01:55:16;;;;;;;4.13;3.33;;;;;10.90;99611.00;;;;5087182;28;20194;-78
2020/12/27 01:58:19;;;;;;;6.43;4.05;;;;;10.80;99615.00;;;;5087489;28;20217;-78
2020/12/27 02:00:47;;;;;;;4.25;3.05;;;;;10.90;99590.00;;;;5094051;28;20774;-77
2020/12/27 02:03:15;;;;;;;5.75;3.13;;;;;10.90;99584.00;;;;5092561;28;20235;-79
2020/12/27 02:05:43;;;;;;;4.43;3.17;;;;;10.90;99568.00;;;;5091774;28;20251;-80
2020/12/27 02:08:11;;;;;;;4.75;3.08;;;;;10.90;99554.00;;;;5092197;28;20238;-80
2020/12/27 02:10:38;;;;;;;6.13;3.38;;;;;10.90;99539.00;;;;5092307;28;20190;-80
2020/12/27 02:13:05;;;;;;;5.93;3.42;;;;;10.90;99519.00;;;;5092567;28;20202;-80
2020/12/27 02:15:31;;;;;;;2.97;2.40;;;;;10.90;99533.00;;;;5091963;28;20209;-80
2020/12/27 02:17:58;;;;;;;4.95;3.05;;;;;10.80;99518.00;;;;5091585;28;20236;-80
2020/12/27 02:20:26;;;;;;;5.35;2.97;;;;;10.80;99495.00;;;;5091667;28;20201;-79
2020/12/27 02:22:53;;;;;;;4.25;2.83;;;;;10.80;99500.00;;;;5091517;28;20206;-78
2020/12/27 02:25:20;;;;;;;3.92;2.60;;;;;10.80;99475.00;;;;5092779;28;20206;-79
2020/12/27 02:27:47;;;;;;;5.65;3.22;;;;;10.80;99471.00;;;;5091145;28;20202;-79
2020/12/27 02:30:14;;;;;;;6.80;3.85;;;;;10.80;99464.00;;;;5092275;28;20574;-79
2020/12/27 02:32:40;;;;;;;4.47;3.17;;;;;10.80;99442.00;;;;5093100;28;21076;-80
2020/12/27 02:35:07;;;;;;;4.68;3.13;;;;;10.80;99444.00;;;;5092277;28;20199;-80
2020/12/27 02:37:34;;;;;;;3.92;2.85;;;;;10.80;99434.00;;;;5100405;28;20224;-79
2020/12/27 02:40:01;;;;;;;4.18;2.97;;;;;10.70;99421.00;;;;5110604;28;20209;-79
2020/12/27 02:42:28;;;;;;;3.88;2.80;;;;;10.70;99411.00;;;;5091901;28;20210;-79
2020/12/27 02:45:10;;;;;;;3.90;2.60;;;;;10.80;99380.00;;;;5094208;28;20199;-78
2020/12/27 02:47:39;;;;;;;3.92;2.88;;;;;10.70;99370.00;;;;5071159;28;20195;-79
2020/12/27 02:50:11;;;;;;;3.50;2.40;;;;;10.70;99365.00;;;;5072441;28;20691;-79
2020/12/27 02:52:39;;;;;;;3.88;2.85;;;;;10.70;99335.00;;;;5100124;28;20660;-80
2020/12/27 02:55:07;;;;;;;4.47;2.85;;;;;10.70;99368.00;;;;5091756;28;20202;-77
2020/12/27 02:57:35;;;;;;;3.47;2.35;;;;;10.70;99360.00;;;;5091212;28;20225;-79
2020/12/27 03:00:03;;;;;;;3.38;2.40;;;;;10.70;99354.00;;;;5091153;28;20336;-79
2020/12/27 03:02:30;;;;;;;2.95;2.50;;;;;10.70;99332.00;;;;5090587;28;20206;-78
2020/12/27 03:04:56;;;;;;;4.95;2.67;;;;;10.70;99333.00;;;;5090037;28;20200;-80
2020/12/27 03:07:23;;;;;;;5.63;2.80;;;;;10.70;99317.00;;;;5091183;28;20221;-79
2020/12/27 03:09:50;;;;;;;3.75;2.28;;;;;10.70;99299.00;;;;5089622;28;20194;-79
2020/12/27 03:12:16;;;;;;;4.45;3.08;;;;;10.70;99280.00;;;;5090216;28;20224;-79
2020/12/27 03:14:44;;;;;;;2.83;2.30;;;;;10.70;99262.00;;;;5090677;28;20259;-79
2020/12/27 03:17:11;;;;;;;6.25;2.65;;;;;10.60;99258.00;;;;5090997;28;20226;-80
2020/12/27 03:19:37;;;;;;;3.25;1.92;;;;;10.60;99258.00;;;;5090270;28;20198;-79
2020/12/27 03:22:04;;;;;;;2.58;1.65;;;;;10.60;99246.00;;;;5091054;28;20556;-79
2020/12/27 03:24:31;;;;;;;3.17;2.33;;;;;10.60;99251.00;;;;5090642;28;20210;-80
2020/12/27 03:26:58;;;;;;;2.60;2.00;;;;;10.60;99243.00;;;;5089937;28;21040;-79
2020/12/27 03:29:24;;;;;;;2.88;1.90;;;;;10.60;99241.00;;;;5090679;28;20191;-80
2020/12/27 03:31:52;;;;;;;4.72;1.90;;;;;10.60;99215.00;;;;5089964;28;20194;-78
2020/12/27 03:34:19;;;;;;;2.55;1.95;;;;;10.60;99220.00;;;;5090134;28;20239;-79
2020/12/27 03:36:46;;;;;;;3.05;2.38;;;;;10.60;99203.00;;;;5090186;28;20312;-78
2020/12/27 03:39:13;;;;;;;3.22;1.63;;;;;10.60;99191.00;;;;5090163;28;20247;-78
2020/12/27 03:41:40;;;;;;;3.10;2.13;;;;;10.60;99192.00;;;;5089546;28;20202;-79
2020/12/27 03:44:07;;;;;;;2.42;1.63;;;;;10.50;99197.00;;;;5099019;28;20259;-78
2020/12/27 03:46:34;;;;;;;3.03;1.73;;;;;10.50;99164.00;;;;5089848;28;20255;-79
2020/12/27 03:49:01;;;;;;;2.63;1.75;;;;;10.50;99158.00;;;;5089648;28;20202;-79
2020/12/27 03:51:28;;;;;;;1.90;1.42;;;;;10.50;99165.00;;;;5090208;28;20202;-79
2020/12/27 03:53:55;;;;;;;2.90;1.67;;;;;10.50;99155.00;;;;5089544;28;20198;-79
2020/12/27 03:56:23;;;;;;;2.45;2.10;;;;;10.50;99149.00;;;;5081707;28;20230;-78
2020/12/27 03:58:50;;;;;;;2.88;1.90;;;;;10.50;99139.00;;;;5090096;28;20570;-78
2020/12/27 04:01:17;;;;;;;2.58;1.45;;;;;10.50;99145.00;;;;5089938;28;20230;-78
2020/12/27 04:03:44;;;;;;;3.08;2.00;;;;;10.50;99136.00;;;;5088671;28;20210;-78
2020/12/27 04:06:11;;;;;;;2.45;1.73;;;;;10.50;99131.00;;;;5090278;28;20228;-78
2020/12/27 04:08:38;;;;;;;2.03;1.50;;;;;10.50;99114.00;;;;5089123;28;20225;-78
2020/12/27 04:11:05;;;;;;;2.22;2.03;;;;;10.50;99097.00;;;;5089114;28;20263;-79
2020/12/27 04:13:31;;;;;;;2.30;1.70;;;;;10.50;99101.00;;;;5102015;28;20200;-78
2020/12/27 04:16:02;;;;;;;1.85;1.60;;;;;10.40;99088.00;;;;5088848;28;20221;-78
2020/12/27 04:18:29;;;;;;;1.60;1.13;;;;;10.50;99066.00;;;;5089454;28;20217;-78
2020/12/27 04:20:56;;;;;;;1.70;1.50;;;;;10.50;99079.00;;;;5088348;28;20277;-78
2020/12/27 04:23:23;;;;;;;3.13;1.40;;;;;10.40;99068.00;;;;5088014;28;20242;-78
2020/12/27 04:25:50;;;;;;;2.45;1.83;;;;;10.50;99062.00;;;;5088565;28;20194;-78
2020/12/27 04:28:17;;;;;;;1.55;1.30;;;;;10.40;99057.00;;;;5089025;28;20209;-77
2020/12/27 04:30:45;;;;;;;1.88;1.42;;;;;10.50;99048.00;;;;5088474;28;20205;-78
2020/12/27 04:33:11;;;;;;;1.13;1.02;;;;;10.50;99042.00;;;;5089468;28;20213;-78
2020/12/27 04:35:38;;;;;;;1.40;1.17;;;;;10.50;99031.00;;;;5088627;28;20191;-78
2020/12/27 04:38:05;;;;;;;1.65;1.35;;;;;10.50;99026.00;;;;5088860;28;20198;-78
2020/12/27 04:40:33;;;;;;;1.50;1.05;;;;;10.50;99014.00;;;;5089638;28;20202;-76
2020/12/27 04:43:00;;;;;;;2.85;1.38;;;;;10.50;99009.00;;;;5091847;28;20220;-78
2020/12/27 04:45:27;;;;;;;2.83;1.30;;;;;10.50;99003.00;;;;5088855;28;20213;-79
2020/12/27 04:47:54;;;;;;;1.52;1.05;;;;;10.50;98999.00;;;;5089102;28;20217;-78
2020/12/27 04:50:23;;;;;;;1.23;0.98;;;;;10.50;98980.00;;;;5088924;28;20232;-78
2020/12/27 04:52:50;;;;;;;2.17;1.33;;;;;10.50;98963.00;;;;5068291;28;20249;-78
2020/12/27 04:55:17;;;;;;;1.77;1.27;;;;;10.50;98946.00;;;;5080872;28;20210;-77
2020/12/27 04:57:47;;;;;;;1.75;1.40;;;;;10.50;98942.00;;;;5100683;28;20233;-78
2020/12/27 05:00:15;;;;;;;2.10;1.27;;;;;10.60;98918.00;;;;5096748;28;20240;-78
2020/12/27 05:02:42;;;;;;;1.27;1.00;;;;;10.60;98916.00;;;;5088114;28;20695;-78
2020/12/27 05:05:13;;;;;;;1.38;0.80;;;;;10.60;98906.00;;;;5088362;28;20199;-78
2020/12/27 05:07:42;;;;;;;1.42;1.02;;;;;10.60;98898.00;;;;5088159;28;20572;-78
2020/12/27 05:10:09;;;;;;;1.30;0.73;;;;;10.60;98879.00;;;;5088289;28;20533;-78
2020/12/27 05:12:36;;;;;;;1.20;0.65;;;;;10.60;98873.00;;;;5101536;28;20200;-78
2020/12/27 05:15:05;;;;;;;1.95;0.98;;;;;10.60;98848.00;;;;5100479;28;20638;-78
2020/12/27 05:17:32;;;;;;;1.15;0.80;;;;;10.70;98846.00;;;;5088036;28;20218;-78
2020/12/27 05:20:06;;;;;;;1.05;0.60;;;;;10.70;98801.00;;;;5088089;28;21009;-77
2020/12/27 05:22:33;;;;;;;1.00;0.80;;;;;10.70;98814.00;;;;5088405;28;20198;-78
2020/12/27 05:25:03;;;;;;;1.10;0.80;;;;;10.70;98810.00;;;;5086135;28;20206;-78
2020/12/27 05:27:32;;;;;;;1.15;0.70;;;;;10.70;98788.00;;;;5088091;28;20206;-78
2020/12/27 05:30:01;;;;;;;0.90;0.43;;;;;10.70;98794.00;;;;5087900;28;20684;-78
2020/12/27 05:32:31;;;;;;;2.03;0.68;;;;;10.70;98777.00;;;;5088175;28;20194;-77
2020/12/27 05:34:58;;;;;;;0.88;0.52;;;;;10.70;98764.00;;;;5086816;28;20198;-78
2020/12/27 05:37:26;;;;;;;1.65;0.50;;;;;10.70;98751.00;;;;5088397;28;20230;-79
2020/12/27 05:39:53;;;;;;;0.73;0.52;;;;;10.70;98744.00;;;;5088023;28;20221;-78
2020/12/27 05:42:25;;;;;;;1.83;0.50;;;;;10.70;98734.00;;;;5103249;28;20204;-78
2020/12/27 05:44:52;;;;;;;1.30;0.43;;;;;10.80;98723.00;;;;5104300;28;20217;-78
2020/12/27 05:47:20;;;;;;;1.20;0.50;;;;;10.70;98734.00;;;;5088418;28;20309;-77
2020/12/27 05:49:47;;;;;;;0.63;0.50;;;;;10.70;98711.00;;;;5086876;28;20213;-81
2020/12/27 05:52:16;;;;;;;0.32;0.22;;;;;10.70;98700.00;;;;5087997;28;20210;-80
2020/12/27 05:54:47;;;;;;;0.30;0.30;;;;;10.70;98669.00;;;;5087503;28;20190;-79
2020/12/27 05:57:15;;;;;;;0.30;0.20;;;;;10.70;98674.00;;;;5088172;28;20221;-77
2020/12/27 05:59:45;;;;;;;0.55;0.30;;;;;10.70;98664.00;;;;5087395;28;20254;-79
2020/12/27 06:02:40;;;;;;;0.35;0.35;;;;;10.60;98658.00;;;;5097958;28;20297;-78
2020/12/27 06:05:23;;;;;;;0.90;0.40;;;;;10.60;98645.00;;;;5087899;28;20195;-79
2020/12/27 06:08:00;;;;;;;0.40;0.25;;;;;10.60;98641.00;;;;5087265;28;20217;-79
2020/12/27 06:10:34;;;;;;;0.38;0.20;;;;;10.70;98630.00;;;;5079663;28;20193;-79
2020/12/27 06:13:37;;;;;;;1.02;0.30;;;;;10.60;98609.00;;;;5108168;28;20953;-79
2020/12/27 06:16:12;;;;;;;0.40;0.13;;;;;10.70;98591.00;;;;5094044;28;20529;-78
2020/12/27 06:18:40;;;;;;;0.35;0.20;;;;;10.70;98580.00;;;;5087307;28;20194;-78
2020/12/27 06:21:10;;;;;;;0.20;0.10;;;;;10.70;98572.00;;;;5087336;28;20605;-78
2020/12/27 06:23:38;;;;;;;0.50;0.20;;;;;10.70;98541.00;;;;5087880;28;20194;-78
2020/12/27 06:26:06;;;;;;;0.30;0.25;;;;;10.70;98549.00;;;;5094538;28;20302;-77
2020/12/27 06:28:34;;;;;;;0.70;0.38;;;;;10.70;98542.00;;;;5108642;28;20531;-78
2020/12/27 06:31:07;;;;;;;0.30;0.15;;;;;10.70;98566.00;;;;5095601;28;20190;-78
2020/12/27 06:33:37;;;;;;;0.30;0.17;;;;;10.70;98536.00;;;;5088160;28;20198;-78
2020/12/27 06:36:04;;;;;;;0.10;0.10;;;;;10.70;98535.00;;;;5086894;28;20201;-78
2020/12/27 06:38:33;;;;;;;0.20;0.10;;;;;10.70;98520.00;;;;5081619;28;20198;-78
2020/12/27 06:41:07;;;;;;;0.35;0.25;;;;;10.70;98506.00;;;;5087046;28;20213;-78
2020/12/27 06:43:41;;;;;;;0.28;0.17;;;;;10.70;98518.00;;;;5080072;28;20202;-79
2020/12/27 06:46:21;;;;;;;0.20;0.17;;;;;10.70;98484.00;;;;5089020;28;20202;-78
2020/12/27 06:48:48;;;;;;;0.50;0.20;;;;;10.80;98484.00;;;;5090221;28;20201;-78
2020/12/27 06:51:37;;;;;;;0.30;0.25;;;;;10.70;98479.00;;;;5091841;28;20197;-78
2020/12/27 06:54:04;;;;;;;0.30;0.10;;;;;10.80;98466.00;;;;5091246;28;20217;-78
2020/12/27 06:56:39;;;;;;;0.30;0.10;;;;;10.70;98456.00;;;;5090086;28;20692;-78
2020/12/27 06:59:06;;;;;;;0.20;0.10;;;;;10.80;98453.00;;;;5098946;28;20196;-78
2020/12/27 07:04:25;;;;;;;0.15;0.10;;;;;10.80;98433.00;;;;5091182;28;20565;-77
2020/12/27 07:06:51;;;;;;;0.63;0.10;;;;;10.80;98441.00;;;;5084147;28;20202;-77
2020/12/27 07:09:22;;;;;;;0.30;0.10;;;;;10.80;98413.00;;;;5089821;28;20199;-77
2020/12/27 07:12:04;;;;;;;0.30;0.10;;;;;10.70;98408.00;;;;5078036;28;20206;-78
2020/12/27 07:14:36;;;;;;;0.15;0.10;;;;;10.80;98398.00;;;;5071660;28;20225;-79
2020/12/27 07:17:06;;;;;;;0.20;0.10;;;;;10.80;98389.00;;;;5084490;28;20309;-78
2020/12/27 07:19:35;;;;;;;0.10;0.10;;;;;10.80;98393.00;;;;5090671;28;20236;-78
2020/12/27 07:22:05;;;;;;;0.10;0.08;;;;;10.80;98381.00;;;;5089091;28;20199;-77
2020/12/27 07:24:36;;;;;;;0.35;0.05;;;;;10.80;98363.00;;;;5087724;28;20190;-78
2020/12/27 07:27:05;;;;;;;0.25;0.10;;;;;10.80;98359.00;;;;5090621;28;20194;-78
2020/12/27 07:29:32;;;;;;;0.50;0.20;;;;;10.80;98364.00;;;;5089682;28;20205;-78
2020/12/27 07:32:00;;;;;;;0.13;0.10;;;;;10.80;98346.00;;;;5090632;28;20206;-78
2020/12/27 07:34:29;;;;;;;0.65;0.00;;;;;10.80;98333.00;;;;5092711;28;20191;-78
2020/12/27 07:37:00;;;;;;;0.20;0.10;;;;;10.80;98361.00;;;;5083779;28;20214;-79
2020/12/27 07:39:53;;;;;;;0.17;0.10;;;;;10.80;98333.00;;;;5078240;28;20261;-78
2020/12/27 07:42:21;;;;;;;0.55;0.20;;;;;10.90;98326.00;;;;5078362;28;20680;-78
2020/12/27 07:44:48;;;;;;;0.10;0.10;;;;;10.90;98318.00;;;;5078318;28;20198;-79
2020/12/27 07:47:15;;;;;;;1.33;0.10;;;;;10.90;98302.00;;;;5080323;28;20702;-79
2020/12/27 07:49:42;;;;;;;0.20;0.10;;;;;10.90;98309.00;;;;5080831;28;20203;-79
2020/12/27 07:52:09;;;;;;;0.10;0.10;;;;;10.90;98283.00;;;;5078065;28;20203;-78
2020/12/27 07:54:41;;;;;;;0.40;0.15;;;;;10.90;98287.00;;;;5084878;28;21497;-78
2020/12/27 07:57:12;;;;;;;1.55;0.03;;;;;10.90;98265.00;;;;5077096;28;20230;-79
2020/12/27 07:59:39;;;;;;;0.25;0.08;;;;;10.90;98262.00;;;;5081151;28;20770;-77
2020/12/27 08:02:06;;;;;;;0.20;0.10;;;;;10.90;98261.00;;;;5080305;28;20263;-78
2020/12/27 08:04:37;;;;;;;0.10;0.10;;;;;10.90;98255.00;;;;5076812;28;20195;-78
2020/12/27 08:07:03;;;;;;;0.13;0.10;;;;;10.90;98240.00;;;;5078797;28;20586;-77
2020/12/27 08:09:30;;;;;;;0.57;0.10;;;;;10.90;98246.00;;;;5088239;28;20202;-78
2020/12/27 08:11:57;;;;;;;0.00;0.00;;;;;10.90;98223.00;;;;5086282;28;20307;-77
2020/12/27 08:14:31;;;;;;;0.00;0.00;;;;;10.90;98229.00;;;;5087638;28;20202;-78
2020/12/27 08:16:58;;;;;;;0.20;0.10;;;;;11.00;98210.00;;;;5087972;28;20264;-77
2020/12/27 08:19:24;;;;;;;0.25;0.15;;;;;10.90;98184.00;;;;5089208;28;20567;-77
2020/12/27 08:21:59;;;;;;;0.10;0.00;;;;;10.90;98193.00;;;;5089624;28;20195;-77
2020/12/27 08:24:26;;;;;;;0.10;0.10;;;;;10.90;98199.00;;;;5088950;28;20303;-78
2020/12/27 08:26:53;;;;;;;0.55;0.03;;;;;10.90;98195.00;;;;5088956;28;20415;-77
2020/12/27 08:29:23;;;;;;;0.10;0.00;;;;;10.90;98176.00;;;;5089590;28;20599;-78
2020/12/27 08:31:51;;;;;;;0.57;0.10;;;;;10.90;98183.00;;;;5088453;28;20259;-79
2020/12/27 08:34:20;;;;;;;0.20;0.17;;;;;10.90;98157.00;;;;5088542;28;20201;-79
2020/12/27 08:36:48;;;;;;;0.10;0.00;;;;;10.90;98156.00;;;;5086516;28;20225;-78
2020/12/27 08:39:25;;;;;;;0.30;0.10;;;;;10.90;98151.00;;;;5087975;28;20205;-77
2020/12/27 08:42:04;;;;;;;0.17;0.00;;;;;10.90;98118.00;;;;5089957;28;20202;-79
2020/12/27 08:44:42;;;;;;;0.10;0.00;;;;;10.90;98131.00;;;;5089840;28;20232;-80
2020/12/27 08:47:26;;;;;;;0.10;0.00;;;;;10.90;98115.00;;;;5088330;28;20290;-77
2020/12/27 08:50:01;;;;;;;0.00;0.00;;;;;10.90;98121.00;;;;5086809;28;21057;-78
2020/12/27 08:52:28;;;;;;;0.20;0.10;;;;;10.90;98094.00;;;;5088981;28;20698;-78
2020/12/27 08:54:58;;;;;;;0.32;0.10;;;;;10.80;98094.00;;;;5087843;28;20260;-78
2020/12/27 08:57:25;;;;;;;0.05;0.00;;;;;10.80;98094.00;;;;5087883;28;20214;-77
2020/12/27 09:00:08;;;;;;;0.15;0.00;;;;;10.70;98092.00;;;;5086974;28;20717;-78
2020/12/27 09:02:36;;;;;;;0.82;0.10;;;;;10.80;98087.00;;;;5088607;28;20206;-79
2020/12/27 09:05:08;;;;;;;0.05;0.00;;;;;10.80;98079.00;;;;5088251;28;20615;-81
2020/12/27 09:07:37;;;;;;;0.10;0.00;;;;;10.80;98073.00;;;;5088158;28;20305;-80
2020/12/27 09:10:09;;;;;;;0.20;0.00;;;;;10.80;98068.00;;;;5088230;28;20198;-80
2020/12/27 09:12:37;;;;;;;0.10;0.10;;;;;10.80;98067.00;;;;5091723;28;20202;-81
2020/12/27 09:15:22;;;;;;;0.10;0.00;;;;;10.80;98040.00;;;;5088783;28;20194;-80
2020/12/27 09:17:59;;;;;;;1.27;0.17;;;;;10.80;98044.00;;;;5101510;28;20230;-80
2020/12/27 09:20:27;;;;;;;0.10;0.00;;;;;10.80;98032.00;;;;5088015;28;20198;-80
2020/12/27 09:22:54;;;;;;;11.80;0.52;;;;;10.90;98035.00;;;;5088520;28;20312;-82
2020/12/27 09:25:22;;;;;;;0.00;0.00;;;;;10.80;98037.00;;;;5088673;28;20672;-79
2020/12/27 09:27:50;;;;;;;0.65;0.00;;;;;10.80;98014.00;;;;5088831;28;20193;-81
2020/12/27 09:30:18;;;;;;;0.17;0.10;;;;;10.80;98023.00;;;;5090146;28;20201;-81
2020/12/27 09:32:45;;;;;;;0.13;0.10;;;;;10.80;98007.00;;;;5090475;28;20210;-81
2020/12/27 09:35:21;;;;;;;0.17;0.05;;;;;10.80;98003.00;;;;5099128;28;20625;-80
2020/12/27 09:37:48;;;;;;;0.10;0.03;;;;;10.80;98008.00;;;;5112017;28;20703;-81
2020/12/27 09:40:16;;;;;;;0.17;0.10;;;;;10.80;97981.00;;;;5098214;28;20213;-80
2020/12/27 09:42:43;;;;;;;0.10;0.00;;;;;10.90;97986.00;;;;5091241;28;20201;-80
2020/12/27 09:45:18;;;;;;;0.20;0.10;;;;;10.80;97964.00;;;;5092083;28;20205;-80
2020/12/27 09:47:53;;;;;;;0.20;0.10;;;;;10.80;97977.00;;;;5088684;28;20255;-82
2020/12/27 09:50:33;;;;;;;0.40;0.10;;;;;10.80;97973.00;;;;5088747;28;20207;-81
2020/12/27 09:53:01;;;;;;;0.05;0.03;;;;;10.90;97968.00;;;;5086251;28;20202;-81
2020/12/27 09:55:28;;;;;;;0.40;0.20;;;;;10.90;97956.00;;;;5081636;28;20221;-80
2020/12/27 09:57:55;;;;;;;0.20;0.10;;;;;10.90;97942.00;;;;5091837;28;20225;-81
2020/12/27 10:00:23;;;;;;;0.20;0.10;;;;;10.90;97934.00;;;;5081655;28;20223;-80
2020/12/27 10:02:49;;;;;;;0.13;0.10;;;;;10.90;97937.00;;;;5084744;28;20570;-81
2020/12/27 10:05:16;;;;;;;0.17;0.00;;;;;10.90;97928.00;;;;5091173;28;20193;-79
2020/12/27 10:07:45;;;;;;;0.15;0.00;;;;;10.90;97921.00;;;;5091614;28;20597;-80
2020/12/27 10:10:13;;;;;;;0.10;0.10;;;;;10.90;97915.00;;;;5088004;28;20213;-79
2020/12/27 10:12:40;;;;;;;0.20;0.20;;;;;10.90;97909.00;;;;5087810;28;20194;-79
2020/12/27 10:15:09;;;;;;;0.15;0.10;;;;;10.90;97883.00;;;;5088495;28;20197;-79
2020/12/27 10:17:36;;;;;;;0.28;0.10;;;;;10.90;97878.00;;;;5083177;28;20581;-80
2020/12/27 10:20:05;;;;;;;0.20;0.10;;;;;10.90;97878.00;;;;5094600;28;20197;-79
2020/12/27 10:22:32;;;;;;;0.30;0.10;;;;;11.00;97864.00;;;;5102815;28;20256;-81
2020/12/27 10:24:59;;;;;;;0.68;0.10;;;;;11.00;97848.00;;;;5094031;28;20202;-81
2020/12/27 10:27:29;;;;;;;0.20;0.10;;;;;11.00;97865.00;;;;5099543;28;20201;-82
2020/12/27 10:29:56;;;;;;;0.55;0.20;;;;;11.00;97832.00;;;;5098945;28;20187;-82
2020/12/27 10:32:23;;;;;;;0.20;0.10;;;;;11.00;97822.00;;;;5098158;28;20276;-82
2020/12/27 10:34:49;;;;;;;0.20;0.08;;;;;11.00;97803.00;;;;5102852;28;20193;-83
2020/12/27 10:37:16;;;;;;;0.15;0.10;;;;;11.00;97807.00;;;;5098150;28;20237;-82
2020/12/27 10:39:43;;;;;;;0.32;0.10;;;;;11.00;97785.00;;;;5096395;28;20201;-79
2020/12/27 10:42:10;;;;;;;0.32;0.17;;;;;11.00;97785.00;;;;5094087;28;20205;-79
2020/12/27 10:44:37;;;;;;;0.10;0.10;;;;;11.00;97795.00;;;;5094594;28;20195;-78
2020/12/27 10:47:07;;;;;;;0.85;0.15;;;;;11.10;97787.00;;;;5092062;28;20220;-78
2020/12/27 10:49:33;;;;;;;0.08;0.00;;;;;11.10;97753.00;;;;5091629;28;20820;-77
2020/12/27 10:52:00;;;;;;;0.10;0.00;;;;;11.10;97771.00;;;;5094002;28;20194;-78
2020/12/27 10:54:27;;;;;;;0.13;0.00;;;;;11.10;97757.00;;;;5092897;28;20194;-78
2020/12/27 10:56:53;;;;;;;0.20;0.10;;;;;11.10;97757.00;;;;5088010;28;20238;-79
2020/12/27 10:59:21;;;;;;;0.10;0.00;;;;;11.10;97756.00;;;;5092709;28;20428;-80
2020/12/27 11:01:49;;;;;;;0.13;0.10;;;;;11.10;97744.00;;;;5092257;28;20250;-79
2020/12/27 11:04:16;;;;;;;0.20;0.10;;;;;11.10;97735.00;;;;5096131;28;20222;-79
2020/12/27 11:06:43;;;;;;;0.10;0.10;;;;;11.10;97741.00;;;;5099039;28;20208;-79
2020/12/27 11:09:10;;;;;;;0.28;0.10;;;;;11.10;97724.00;;;;5100471;28;20624;-79
2020/12/27 11:11:37;;;;;;;0.65;0.13;;;;;11.10;97721.00;;;;5096227;28;20207;-80
2020/12/27 11:14:05;;;;;;;0.13;0.10;;;;;11.10;97741.00;;;;5097981;28;20190;-80
2020/12/27 11:16:33;;;;;;;0.22;0.20;;;;;11.10;97713.00;;;;5090607;28;20664;-78
2020/12/27 11:19:00;;;;;;;0.08;0.03;;;;;11.10;97729.00;;;;5086171;28;20198;-76
2020/12/27 11:21:27;;;;;;;0.10;0.10;;;;;11.20;97716.00;;;;5090698;28;20202;-78
2020/12/27 11:23:54;;;;;;;0.25;0.10;;;;;11.20;97704.00;;;;5090467;28;20198;-78
2020/12/27 11:26:21;;;;;;;0.28;0.10;;;;;11.20;97696.00;;;;5090131;28;20370;-78
2020/12/27 11:28:48;;;;;;;0.45;0.20;;;;;11.20;97681.00;;;;5090286;28;20206;-76
2020/12/27 11:31:16;;;;;;;0.38;0.13;;;;;11.20;97684.00;;;;5089948;28;20214;-77
2020/12/27 11:33:45;;;;;;;0.40;0.20;;;;;11.20;97679.00;;;;5089804;28;20558;-76
2020/12/27 11:36:12;;;;;;;0.32;0.20;;;;;11.20;97673.00;;;;5090017;28;20202;-76
2020/12/27 11:38:39;;;;;;;1.17;0.10;;;;;11.20;97656.00;;;;5089483;28;20222;-79
2020/12/27 11:41:06;;;;;;;0.20;0.10;;;;;11.30;97665.00;;;;5104281;28;20198;-78
2020/12/27 11:43:33;;;;;;;0.35;0.20;;;;;11.30;97653.00;;;;5091445;28;20202;-79
2020/12/27 11:45:59;;;;;;;0.35;0.05;;;;;11.30;97649.00;;;;5086986;28;20283;-79
2020/12/27 11:48:26;;;;;;;0.10;0.00;;;;;11.30;97644.00;;;;5088394;28;20202;-78
2020/12/27 11:50:54;;;;;;;0.20;0.10;;;;;11.30;97633.00;;;;5092695;28;20194;-78
2020/12/27 11:53:21;;;;;;;0.13;0.08;;;;;11.30;97634.00;;;;5096847;28;20713;-78
2020/12/27 11:55:47;;;;;;;0.40;0.20;;;;;11.30;97636.00;;;;5104270;28;20194;-78
2020/12/27 11:58:14;;;;;;;0.10;0.00;;;;;11.30;97627.00;;;;5096910;28;20230;-79
2020/12/27 12:00:41;;;;;;;0.10;0.00;;;;;11.30;97607.00;;;;5095735;28;20283;-78
2020/12/27 12:03:08;;;;;;;0.20;0.10;;;;;11.40;97603.00;;;;5091835;28;20198;-79
2020/12/27 12:05:34;;;;;;;0.22;0.08;;;;;11.40;97597.00;;;;5091944;28;20202;-79
2020/12/27 12:08:02;;;;;;;0.08;0.00;;;;;11.40;97605.00;;;;5093146;28;20695;-78
2020/12/27 12:10:29;;;;;;;0.30;0.15;;;;;11.40;97593.00;;;;5092152;28;20194;-79
2020/12/27 12:12:55;;;;;;;0.08;0.00;;;;;11.40;97584.00;;;;5093933;28;20754;-78
2020/12/27 12:15:22;;;;;;;0.10;0.00;;;;;11.50;97568.00;;;;5097179;28;20190;-79
2020/12/27 12:17:49;;;;;;;0.10;0.10;;;;;11.50;97548.00;;;;5091214;28;20735;-78
2020/12/27 12:23:01;;;;;;;0.10;0.10;;;;;11.50;97573.00;;;;5092376;28;20265;-78
2020/12/27 12:25:28;;;;;;;0.20;0.10;;;;;11.50;97554.00;;;;5095615;28;20198;-78
2020/12/27 12:27:55;;;;;;;0.30;0.10;;;;;11.50;97563.00;;;;5100241;28;20198;-78
2020/12/27 12:30:21;;;;;;;0.20;0.10;;;;;11.50;97544.00;;;;5098383;28;20190;-77
2020/12/27 12:32:48;;;;;;;0.03;0.00;;;;;11.50;97548.00;;;;5096947;28;20199;-77